Witherbee, New York
Current Conditions -  °F | °C
As of 11:35 AM on Thursday 30 Oct 2014 (Local Time) from K6B0 Reporting Station
Overcast Overcast  
Wind Chill: 50°   Ceiling: 2200
Heat Index: 50°   Visibility: 10mi
Dew Point: 41°   Wind: 7mph
Humidity: 70%   Direction: 360°N
Pressure: 29.96"   Gusts: NA
Location:  44.09°N, 73.53°W
Report Text: K6B0 301535Z AUTO 36006KT 10SM BKN022 OVC028 10/05 A2996 RMK AO2 T01000048
Loading
Personal Weather Stations






























Interactive Weather Map
Tropical Storm Tracking
New forecast layout! Learn more

10-Day Weather Forecast

Advertisements
Track Severe Weather on mobile